Time;durP1;ratioP1;P1;durP2;ratioP2;P2;SDS_P1;SDS_P2;PMS_P1;PMS_P2;Temp;Humidity;BMP_temperature;BMP_pressure;BME280_temperature;BME280_humidity;BME280_pressure;Samples;Min_cycle;Max_cycle;Signal;HPM_P1;HPM_P2
2022/10/17 00:01:06;;;;;;;2.90;2.22;;;16.90;90.60;;;19.57;53.41;98120.97;4926305;29;20048;-50
2022/10/17 00:03:36;;;;;;;3.38;2.17;;;16.80;90.40;;;19.54;53.30;98115.16;4926030;29;20055;-51
2022/10/17 00:06:11;;;;;;;5.30;3.00;;;16.80;90.50;;;19.59;53.35;98118.06;4926267;29;20058;-46
2022/10/17 00:08:41;;;;;;;4.30;2.30;;;16.80;90.60;;;19.53;53.18;98121.59;4955939;29;20047;-45
2022/10/17 00:11:16;;;;;;;3.47;2.53;;;16.80;90.50;;;19.52;53.35;98119.94;4924960;29;20058;-46
2022/10/17 00:13:48;;;;;;;5.05;1.85;;;16.70;90.30;;;19.50;53.51;98125.53;4926734;29;20062;-46
2022/10/17 00:16:25;;;;;;;4.88;1.98;;;16.70;90.80;;;19.48;53.44;98123.06;4956078;29;20048;-49
2022/10/17 00:18:54;;;;;;;2.90;2.10;;;16.70;90.60;;;19.50;53.20;98124.69;4955818;29;20044;-46
2022/10/17 00:21:23;;;;;;;4.80;2.47;;;16.70;90.40;;;19.49;53.33;98126.56;4926055;29;20054;-44
2022/10/17 00:23:52;;;;;;;4.07;2.60;;;16.70;90.00;;;19.46;53.19;98135.09;4925839;29;20051;-47
2022/10/17 00:26:21;;;;;;;4.25;2.42;;;16.70;90.20;;;19.46;53.21;98135.09;4925885;29;20056;-49
2022/10/17 00:28:51;;;;;;;4.60;2.20;;;16.70;90.30;;;19.51;53.32;98135.31;4925747;29;20047;-45
2022/10/17 00:31:22;;;;;;;2.80;2.38;;;16.70;89.60;;;19.51;53.19;98134.47;4924531;29;20056;-47
2022/10/17 00:33:50;;;;;;;3.17;2.40;;;16.70;90.20;;;19.48;53.09;98139.25;4925795;29;20074;-48
2022/10/17 00:36:21;;;;;;;4.60;2.30;;;16.70;90.50;;;19.45;53.13;98139.66;4925815;29;20047;-46
2022/10/17 00:38:57;;;;;;;2.53;1.80;;;16.70;90.50;;;19.43;53.41;98144.44;4925511;29;20070;-46
2022/10/17 00:41:30;;;;;;;3.55;2.15;;;16.60;90.90;;;19.38;53.27;98138.81;4925995;29;20050;-47
2022/10/17 00:44:01;;;;;;;5.10;2.50;;;16.50;91.10;;;19.38;53.29;98146.09;4924311;29;20246;-45
2022/10/17 00:46:33;;;;;;;6.82;2.65;;;16.50;91.50;;;19.37;53.25;98142.56;4924611;29;20052;-51
2022/10/17 00:49:08;;;;;;;5.28;2.42;;;16.50;91.30;;;19.35;53.41;98143.78;4926851;29;20062;-46
2022/10/17 00:51:48;;;;;;;3.22;2.10;;;16.50;91.00;;;19.34;53.37;98142.13;4929622;29;20048;-43
2022/10/17 00:54:19;;;;;;;2.72;2.47;;;16.50;91.10;;;19.35;53.35;98138.38;4929886;29;20376;-47
2022/10/17 00:56:47;;;;;;;3.53;1.80;;;16.50;91.20;;;19.38;53.16;98135.28;4958768;29;20047;-46
2022/10/17 00:59:19;;;;;;;3.25;2.20;;;16.60;90.50;;;19.44;52.97;98142.56;4959940;29;20054;-46
2022/10/17 01:02:01;;;;;;;4.50;2.60;;;16.70;89.80;;;19.48;52.92;98139.25;4930357;28;20052;-47
2022/10/17 01:04:28;;;;;;;3.22;1.90;;;16.80;88.80;;;19.52;52.71;98147.75;4929879;29;20052;-44
2022/10/17 01:06:56;;;;;;;4.72;2.45;;;16.80;88.30;;;19.56;52.88;98145.47;4943264;29;20374;-44
2022/10/17 01:09:26;;;;;;;4.82;2.03;;;17.00;87.80;;;19.58;52.70;98144.25;4943859;29;20056;-45
2022/10/17 01:12:40;;;;;;;2.95;2.10;;;17.00;87.30;;;19.63;52.72;98147.13;4959748;29;20092;-45
2022/10/17 01:15:15;;;;;;;2.78;2.10;;;17.10;86.20;;;19.66;52.31;98138.63;4926494;29;20048;-44
2022/10/17 01:18:30;;;;;;;4.45;2.20;;;17.00;87.10;;;19.66;52.45;98137.81;4958576;29;20048;-45
2022/10/17 01:21:11;;;;;;;;;;;17.00;86.30;;;19.82;52.14;98136.59;4929363;29;20048;-44
2022/10/17 01:24:20;;;;;;;3.17;1.83;;;17.00;86.40;;;19.73;52.34;98144.06;4913467;29;19926;-46
2022/10/17 01:27:09;;;;;;;4.32;2.45;;;16.90;86.60;;;19.68;51.97;98135.72;4909129;29;20063;-45
2022/10/17 01:29:53;;;;;;;3.20;2.10;;;16.90;86.80;;;19.63;52.18;98139.03;4927250;29;20357;-44
2022/10/17 01:32:35;;;;;;;6.57;2.33;;;16.90;87.30;;;19.58;52.34;98146.94;4958804;29;20329;-47
2022/10/17 01:35:21;;;;;;;3.17;2.22;;;16.80;87.30;;;19.52;52.76;98145.06;4928886;29;20054;-46
2022/10/17 01:38:35;;;;;;;4.75;2.00;;;16.80;87.30;;;19.45;52.46;98152.34;4927105;29;20048;-46
2022/10/17 01:41:32;;;;;;;2.78;2.20;;;16.70;87.40;;;19.46;52.26;98153.97;4915100;29;20250;-49
2022/10/17 01:44:34;;;;;;;3.67;2.55;;;16.60;88.00;;;19.35;52.67;98149.19;4928074;29;20057;-46
2022/10/17 01:47:14;;;;;;;4.40;1.95;;;16.50;88.40;;;19.38;52.66;98144.22;4922118;29;20066;-45
2022/10/17 01:49:45;;;;;;;4.47;2.20;;;16.60;88.50;;;19.38;52.48;98141.50;4942657;29;20055;-47
2022/10/17 01:52:25;;;;;;;2.72;2.42;;;16.60;88.10;;;19.39;52.49;98143.19;4928528;29;20243;-50
2022/10/17 01:55:03;;;;;;;5.03;2.13;;;16.60;87.90;;;19.41;52.33;98132.19;4942335;29;20083;-46
2022/10/17 01:57:45;;;;;;;5.22;2.13;;;16.70;87.80;;;19.40;52.46;98139.44;4941299;29;20048;-45
2022/10/17 02:00:23;;;;;;;3.42;2.17;;;16.70;87.60;;;19.39;52.37;98140.47;4926175;29;20048;-44
2022/10/17 02:02:59;;;;;;;3.28;2.20;;;16.60;87.60;;;19.36;52.55;98124.69;4957771;29;20047;-43
2022/10/17 02:05:40;;;;;;;3.03;1.73;;;16.60;87.80;;;19.39;52.55;98120.75;4957973;29;20048;-44
2022/10/17 02:08:10;;;;;;;2.38;1.70;;;16.70;87.50;;;19.40;52.39;98125.94;4958157;29;20052;-43
2022/10/17 02:10:53;;;;;;;3.45;2.00;;;16.70;87.30;;;19.40;52.42;98123.22;4927512;29;20056;-45
2022/10/17 02:14:07;;;;;;;2.78;2.13;;;16.80;86.60;;;19.48;52.05;98136.56;4928298;29;20062;-47
2022/10/17 02:16:43;;;;;;;4.72;1.95;;;16.90;85.40;;;19.55;52.01;98127.63;4923845;29;20056;-43
2022/10/17 02:19:38;;;;;;;2.22;1.95;;;16.80;85.80;;;19.60;52.12;98125.13;4928038;29;20048;-45
2022/10/17 02:22:08;;;;;;;4.45;2.10;;;16.90;85.70;;;19.61;51.96;98124.91;4927350;29;20062;-48
2022/10/17 02:24:53;;;;;;;3.03;2.05;;;17.00;85.60;;;19.61;51.91;98127.63;4927940;29;20040;-44
2022/10/17 02:27:37;;;;;;;2.85;1.90;;;17.00;85.00;;;19.63;51.99;98124.72;4926544;29;20253;-46
2022/10/17 02:30:44;;;;;;;5.68;2.28;;;17.00;85.10;;;19.64;51.65;98123.69;4928405;29;20062;-46
2022/10/17 02:33:21;;;;;;;3.92;2.33;;;17.00;85.10;;;19.62;51.71;98125.78;4954390;29;20054;-45
2022/10/17 02:35:56;;;;;;;4.03;1.88;;;16.90;85.40;;;19.61;51.88;98119.50;4941076;29;20355;-48
2022/10/17 02:38:28;;;;;;;4.07;2.20;;;16.90;85.50;;;19.60;51.61;98119.72;4940932;29;20066;-45
2022/10/17 02:40:56;;;;;;;2.83;1.90;;;16.90;85.40;;;19.59;51.71;98123.47;4941469;29;20322;-47
2022/10/17 02:43:24;;;;;;;4.43;2.22;;;16.90;85.20;;;19.57;51.72;98122.84;4958032;29;20048;-44
2022/10/17 02:45:53;;;;;;;4.80;2.10;;;16.90;85.10;;;19.56;51.57;98126.56;4941621;29;20052;-46
2022/10/17 02:48:35;;;;;;;4.05;1.92;;;16.90;84.80;;;19.57;51.82;98120.97;4926062;29;20060;-47
2022/10/17 02:51:42;;;;;;;2.92;2.10;;;16.90;84.80;;;19.57;51.65;98131.78;4956367;29;20058;-45
2022/10/17 02:54:29;;;;;;;4.68;2.35;;;16.80;84.70;;;19.56;51.65;98121.16;4927622;29;20048;-44
2022/10/17 02:57:23;;;;;;;4.25;2.35;;;16.70;85.20;;;19.54;51.76;98131.34;4955194;29;20048;-45
2022/10/17 02:59:52;;;;;;;3.53;2.25;;;16.70;84.90;;;19.50;51.47;98119.31;4956242;29;20384;-44
2022/10/17 03:02:20;;;;;;;7.68;2.53;;;16.70;85.60;;;19.44;51.56;98129.06;4941711;29;20062;-48
2022/10/17 03:04:48;;;;;;;5.95;2.33;;;16.60;85.80;;;19.43;51.81;98132.81;4926989;29;20060;-45
2022/10/17 03:07:15;;;;;;;3.15;2.30;;;16.60;85.60;;;19.40;51.93;98133.22;4941567;29;20048;-45
2022/10/17 03:09:44;;;;;;;3.85;2.40;;;16.70;85.60;;;19.36;51.63;98138.19;4925546;29;20058;-47
2022/10/17 03:12:11;;;;;;;4.03;2.30;;;16.70;85.60;;;19.35;52.06;98138.38;4956980;28;20341;-51
2022/10/17 03:14:39;;;;;;;2.97;2.42;;;16.60;85.60;;;19.31;51.90;98137.13;4927096;29;20052;-46
2022/10/17 03:17:08;;;;;;;7.65;2.50;;;16.60;85.90;;;19.30;51.97;98136.31;4925392;29;20052;-46
2022/10/17 03:19:36;;;;;;;4.90;2.67;;;16.60;86.10;;;19.28;51.98;98136.50;4957326;29;20063;-47
2022/10/17 03:22:03;;;;;;;3.63;2.42;;;16.60;86.20;;;19.28;52.08;98130.28;4957147;29;20052;-47
2022/10/17 03:24:33;;;;;;;4.10;2.90;;;16.50;86.00;;;19.26;52.08;98138.59;4957952;28;20052;-46
2022/10/17 03:27:01;;;;;;;3.20;2.70;;;16.50;86.20;;;19.25;51.95;98134.25;4956812;29;20052;-45
2022/10/17 03:29:29;;;;;;;3.80;2.65;;;16.50;86.20;;;19.24;51.89;98129.84;4926389;29;20056;-49
2022/10/17 03:31:58;;;;;;;3.05;2.25;;;16.40;86.40;;;19.24;52.03;98137.97;4925911;29;20383;-46
2022/10/17 03:34:25;;;;;;;3.88;2.40;;;16.50;86.30;;;19.21;51.94;98138.38;4957206;29;20427;-48
2022/10/17 03:36:54;;;;;;;3.30;2.42;;;16.40;86.30;;;19.21;51.86;98142.94;4940706;29;20052;-47
2022/10/17 03:39:22;;;;;;;4.15;2.42;;;16.40;86.40;;;19.20;51.97;98136.72;4956478;29;20056;-48
2022/10/17 03:41:50;;;;;;;2.88;2.30;;;16.40;86.40;;;19.20;51.97;98138.59;4926650;29;20050;-46
2022/10/17 03:44:18;;;;;;;4.00;2.40;;;16.40;86.40;;;19.22;51.98;98147.31;4941798;29;20058;-49
2022/10/17 03:46:46;;;;;;;3.10;2.60;;;16.40;86.20;;;19.22;51.82;98134.63;4921546;29;20066;-46
2022/10/17 03:49:14;;;;;;;4.22;2.35;;;16.40;86.30;;;19.21;51.93;98142.94;4941447;29;20052;-44
2022/10/17 03:51:42;;;;;;;2.95;2.53;;;16.30;86.60;;;19.15;52.05;98138.34;4925594;29;20052;-48
2022/10/17 03:54:13;;;;;;;3.30;2.50;;;16.30;87.20;;;19.06;52.11;98138.56;4957492;28;20056;-44
2022/10/17 03:56:42;;;;;;;4.75;2.58;;;16.10;87.90;;;18.99;52.38;98142.25;4956746;28;20056;-47
2022/10/17 03:59:14;;;;;;;4.03;2.60;;;16.00;88.30;;;18.97;52.49;98149.72;4941132;29;20225;-46
2022/10/17 04:01:49;;;;;;;5.68;2.75;;;16.00;88.60;;;18.93;52.46;98148.47;4924714;29;20056;-47
2022/10/17 04:04:18;;;;;;;5.15;2.60;;;15.90;89.00;;;18.91;52.47;98158.63;4925214;29;20052;-46
2022/10/17 04:06:46;;;;;;;3.58;2.70;;;15.90;89.00;;;18.87;52.43;98161.72;4924489;29;20140;-44
2022/10/17 04:09:14;;;;;;;5.72;2.92;;;15.90;89.20;;;18.84;52.53;98170.25;4956813;28;20357;-45
2022/10/17 04:11:51;;;;;;;3.20;2.58;;;15.80;89.10;;;18.81;52.47;98157.16;4940779;29;20075;-43
2022/10/17 04:14:21;;;;;;;3.92;2.47;;;15.80;89.50;;;18.77;52.55;98163.94;4924594;29;20055;-47
2022/10/17 04:16:49;;;;;;;5.10;2.80;;;15.80;89.70;;;18.73;52.67;98162.69;4925105;29;20044;-44
2022/10/17 04:19:20;;;;;;;18.70;2.72;;;15.80;89.60;;;18.72;52.87;98173.66;4940785;29;20265;-48
2022/10/17 04:21:49;;;;;;;4.75;2.42;;;15.80;89.30;;;18.71;52.86;98172.84;4956705;29;20058;-48
2022/10/17 04:24:18;;;;;;;4.57;2.53;;;15.80;89.60;;;18.66;53.00;98181.50;4955583;28;20246;-46
2022/10/17 04:26:58;;;;;;;6.03;2.50;;;15.80;89.70;;;18.65;53.09;98179.00;4955928;29;20258;-47
2022/10/17 04:29:29;;;;;;;4.45;2.40;;;15.90;89.70;;;18.66;53.25;98188.78;4924632;29;20056;-45
2022/10/17 04:32:05;;;;;;;4.30;2.63;;;16.00;89.50;;;18.63;53.28;98184.63;4924612;29;20055;-46
2022/10/17 04:34:48;;;;;;;3.58;1.92;;;16.00;89.20;;;18.65;53.21;98193.34;4924436;29;20059;-45
2022/10/17 04:37:19;;;;;;;4.72;2.40;;;16.00;89.00;;;18.66;53.24;98192.31;4924071;29;20253;-47
2022/10/17 04:39:49;;;;;;;5.55;2.53;;;16.00;88.90;;;18.68;53.17;98187.53;4924415;29;20056;-44
2022/10/17 04:42:17;;;;;;;8.95;2.97;;;16.10;88.70;;;18.70;53.03;98190.03;4925099;29;20075;-46
2022/10/17 04:44:45;;;;;;;6.47;2.40;;;16.10;88.60;;;18.69;53.17;98189.22;4924570;29;20052;-46
2022/10/17 04:47:16;;;;;;;4.72;2.50;;;16.00;88.50;;;18.69;53.15;98189.22;4924546;29;20066;-45
2022/10/17 04:49:44;;;;;;;2.75;2.45;;;16.00;88.70;;;18.70;53.14;98182.78;4926734;28;20052;-45
2022/10/17 04:52:13;;;;;;;3.22;2.50;;;16.10;88.70;;;18.77;53.06;98187.41;4924710;29;20051;-44
2022/10/17 04:54:59;;;;;;;2.97;2.28;;;16.10;88.50;;;18.81;53.14;98186.81;4956586;28;20062;-46
2022/10/17 04:57:27;;;;;;;4.88;2.40;;;16.10;88.30;;;18.83;53.02;98182.03;4925343;29;20062;-46
2022/10/17 05:00:04;;;;;;;4.75;2.88;;;16.20;88.20;;;18.84;52.93;98183.72;4924589;29;20052;-48
2022/10/17 05:02:50;;;;;;;3.60;2.50;;;16.20;88.20;;;18.86;52.83;98187.06;4925942;29;20070;-43
2022/10/17 05:05:19;;;;;;;4.53;2.60;;;16.20;88.20;;;18.87;52.81;98185.19;4955765;29;20062;-46
2022/10/17 05:07:50;;;;;;;3.33;2.30;;;16.10;88.40;;;18.86;52.88;98178.97;4925353;29;20055;-46
2022/10/17 05:10:22;;;;;;;4.72;2.55;;;16.10;88.60;;;18.87;52.88;98187.88;4924821;29;20056;-50
2022/10/17 05:12:52;;;;;;;4.00;2.70;;;16.10;88.40;;;18.88;52.88;98189.53;4940440;29;20058;-47
2022/10/17 05:15:23;;;;;;;4.07;2.50;;;16.10;88.30;;;18.88;52.80;98189.53;4939889;29;20268;-46
2022/10/17 05:17:56;;;;;;;4.85;3.78;;;16.20;88.30;;;18.89;52.72;98194.72;4923610;29;20056;-48
2022/10/17 05:20:27;;;;;;;4.47;2.45;;;16.20;88.00;;;18.85;52.69;98188.06;4940139;29;20052;-45
2022/10/17 05:22:57;;;;;;;3.72;2.63;;;16.10;88.50;;;18.86;52.63;98180.81;4940123;29;20362;-48
2022/10/17 05:25:28;;;;;;;4.03;2.55;;;16.10;88.60;;;18.87;52.74;98180.59;4956416;28;20113;-48
2022/10/17 05:27:55;;;;;;;5.18;2.50;;;16.10;88.70;;;18.86;52.80;98180.81;4955243;29;20062;-44
2022/10/17 05:30:23;;;;;;;3.90;2.20;;;16.10;88.70;;;18.84;52.77;98183.72;4940327;29;20055;-47
2022/10/17 05:32:56;;;;;;;3.17;2.40;;;16.00;88.50;;;18.81;52.90;98183.28;4940442;29;20062;-46
2022/10/17 05:35:24;;;;;;;5.05;2.50;;;16.00;88.90;;;18.75;52.85;98178.69;4926645;29;20047;-44
2022/10/17 05:37:53;;;;;;;3.15;2.35;;;15.90;89.20;;;18.73;53.05;98178.00;4943097;29;20062;-47
2022/10/17 05:40:24;;;;;;;4.25;2.97;;;15.90;89.20;;;18.76;53.15;98186.53;4959161;29;20054;-48
2022/10/17 05:42:53;;;;;;;5.28;3.20;;;16.00;89.10;;;18.74;52.96;98183.22;4927671;29;20367;-48
2022/10/17 05:45:22;;;;;;;3.95;2.50;;;16.00;89.10;;;18.78;52.96;98183.66;4927649;29;20052;-45
2022/10/17 05:47:50;;;;;;;4.68;2.63;;;15.90;88.80;;;18.75;52.78;98190.28;4958639;29;20071;-48
2022/10/17 05:50:20;;;;;;;6.35;2.42;;;15.90;89.10;;;18.77;52.97;98190.09;4943148;29;20289;-47
2022/10/17 05:53:15;;;;;;;4.40;2.45;;;16.00;89.10;;;18.77;52.86;98193.63;4928729;29;20063;-46
2022/10/17 05:55:56;;;;;;;6.72;3.00;;;15.90;89.20;;;18.78;53.00;98187.16;4927506;29;20062;-46
2022/10/17 05:58:25;;;;;;;3.83;2.58;;;15.90;88.80;;;18.78;52.93;98194.44;4928356;29;20317;-48
2022/10/17 06:01:26;;;;;;;2.97;2.53;;;16.00;89.20;;;18.78;52.79;98197.97;4927141;29;20062;-46
2022/10/17 06:03:54;;;;;;;5.63;2.88;;;16.00;89.10;;;18.78;52.93;98197.97;4927204;29;20048;-48
2022/10/17 06:06:22;;;;;;;5.22;3.30;;;16.00;88.80;;;18.80;52.91;98200.50;4943077;29;20048;-45
2022/10/17 06:08:50;;;;;;;5.00;3.00;;;16.00;88.70;;;18.81;52.88;98202.16;4927213;29;20055;-48
2022/10/17 06:11:24;;;;;;;4.25;2.47;;;16.00;88.80;;;18.85;52.72;98206.94;4928999;29;20066;-46
2022/10/17 06:13:52;;;;;;;3.55;2.53;;;16.00;88.80;;;18.85;52.84;98204.25;4958285;29;20064;-48
2022/10/17 06:16:24;;;;;;;9.25;3.28;;;16.10;88.80;;;18.87;52.79;98210.28;4926769;29;20060;-45
2022/10/17 06:18:52;;;;;;;8.80;4.20;;;16.10;88.70;;;18.87;52.87;98204.06;4958045;29;20051;-47
2022/10/17 06:21:28;;;;;;;6.78;3.35;;;16.10;88.40;;;18.88;53.00;98217.34;4926957;29;20242;-46
2022/10/17 06:24:04;;;;;;;5.20;2.97;;;16.10;88.60;;;18.87;52.83;98215.69;4942627;29;20062;-46
2022/10/17 06:26:35;;;;;;;5.43;2.50;;;16.10;88.50;;;18.79;52.79;98215.00;4927818;29;20052;-45
2022/10/17 06:29:06;;;;;;;5.90;3.42;;;16.00;89.00;;;18.74;52.98;98226.38;4926105;29;20064;-45
2022/10/17 06:31:43;;;;;;;6.38;2.95;;;15.90;89.70;;;18.75;53.05;98224.53;4926900;29;20060;-49
2022/10/17 06:34:15;;;;;;;4.70;2.97;;;15.80;89.90;;;18.78;53.05;98242.97;4926520;29;20066;-50
2022/10/17 06:36:46;;;;;;;5.00;2.63;;;15.90;90.10;;;18.80;53.14;98246.34;4957572;29;20062;-47
2022/10/17 06:39:14;;;;;;;6.90;2.90;;;15.90;90.20;;;18.82;53.18;98257.78;4926375;29;20055;-47
2022/10/17 06:42:08;;;;;;;6.68;2.97;;;15.90;90.20;;;18.85;52.92;98260.91;4927935;29;20066;-48
2022/10/17 06:44:46;;;;;;;3.97;3.03;;;15.90;90.40;;;18.84;52.93;98264.66;4942105;29;20062;-44
2022/10/17 06:47:37;;;;;;;5.20;3.90;;;15.90;90.60;;;18.85;53.26;98270.88;4931475;29;20261;-46
2022/10/17 06:50:30;;;;;;;5.03;3.33;;;15.90;90.90;;;18.84;53.19;98271.88;4926942;29;20070;-45
2022/10/17 06:53:18;;;;;;;4.07;3.47;;;15.90;91.50;;;18.84;53.40;98282.69;4927681;29;20064;-50
2022/10/17 06:56:13;;;;;;;5.45;2.88;;;15.90;92.00;;;18.84;53.46;98277.28;4919767;29;20058;-46
2022/10/17 06:58:58;;;;;;;6.35;3.30;;;15.90;92.20;;;18.85;53.55;98277.09;4925241;29;20056;-44
2022/10/17 07:01:31;;;;;;;8.55;3.45;;;15.90;92.20;;;18.87;53.32;98283.13;4927193;29;20044;-44
2022/10/17 07:04:00;;;;;;;7.07;2.90;;;16.00;92.10;;;18.89;53.59;98294.53;4925593;29;20083;-50
2022/10/17 07:06:31;;;;;;;5.85;2.55;;;16.00;92.00;;;18.92;53.65;98290.63;4926357;29;20299;-45
2022/10/17 07:09:05;;;;;;;4.03;2.60;;;16.10;91.80;;;18.98;53.57;98299.75;4926304;29;20067;-42
2022/10/17 07:11:36;;;;;;;3.50;2.47;;;16.20;91.50;;;19.04;53.75;98301.69;4925593;29;20277;-47
2022/10/17 07:14:04;;;;;;;5.43;2.45;;;16.30;91.40;;;19.10;53.63;98295.50;4927209;29;20054;-46
2022/10/17 07:16:33;;;;;;;3.97;2.50;;;16.40;91.10;;;19.15;53.66;98287.59;4925698;29;20056;-47
2022/10/17 07:19:18;;;;;;;6.82;2.83;;;16.40;90.90;;;19.23;53.50;98292.00;4916827;29;20056;-42
2022/10/17 07:21:46;;;;;;;4.82;2.42;;;16.50;90.90;;;19.27;53.64;98298.69;4920541;29;20050;-46
2022/10/17 07:24:15;;;;;;;5.07;2.63;;;16.60;90.70;;;19.31;53.69;98302.66;4925616;29;20048;-43
2022/10/17 07:26:47;;;;;;;3.23;2.60;;;16.60;90.50;;;19.39;53.45;98293.53;4910267;29;20056;-44
2022/10/17 07:29:15;;;;;;;8.52;4.35;;;16.80;90.40;;;19.42;53.39;98298.53;4940904;29;20066;-44
2022/10/17 07:31:58;;;;;;;12.50;6.40;;;16.80;89.80;;;19.47;53.14;98296.06;4911744;29;20056;-45
2022/10/17 07:34:29;;;;;;;6.72;4.22;;;16.90;89.40;;;19.52;53.47;98304.38;4925016;29;20056;-45
2022/10/17 07:36:57;;;;;;;8.10;5.35;;;16.90;89.30;;;19.58;53.24;98306.28;4925180;29;20062;-47
2022/10/17 07:39:25;;;;;;;6.65;4.15;;;17.00;89.00;;;19.65;53.33;98309.00;4926414;29;20050;-44
2022/10/17 07:41:54;;;;;;;5.22;4.47;;;17.10;89.00;;;19.70;53.37;98308.38;4940953;29;20059;-44
2022/10/17 07:44:23;;;;;;;5.32;3.70;;;17.10;88.70;;;19.76;53.08;98311.13;4925017;29;20056;-44
2022/10/17 07:46:53;;;;;;;4.82;3.15;;;17.20;88.60;;;19.81;53.23;98305.97;4926151;29;20040;-46
2022/10/17 07:49:21;;;;;;;4.55;3.30;;;17.30;88.60;;;19.84;53.18;98304.72;4925068;29;20293;-45
2022/10/17 07:51:49;;;;;;;6.10;3.53;;;17.30;88.70;;;19.89;53.50;98309.50;4926248;29;20051;-43
2022/10/17 07:54:17;;;;;;;3.83;2.25;;;17.30;88.60;;;19.92;53.02;98301.81;4926070;29;20058;-47
2022/10/17 07:56:49;;;;;;;4.13;2.63;;;17.40;87.80;;;19.98;52.50;98305.56;4925530;29;20282;-50
2022/10/17 07:59:18;;;;;;;3.65;2.47;;;17.50;87.50;;;20.02;52.62;98304.94;4924410;29;20048;-47
2022/10/17 08:01:46;;;;;;;4.53;2.35;;;17.50;87.00;;;20.09;52.50;98301.44;4925853;29;20055;-48
2022/10/17 08:04:15;;;;;;;4.00;2.30;;;17.60;86.70;;;20.13;52.47;98306.22;4926174;29;20036;-45
2022/10/17 08:06:43;;;;;;;3.25;2.55;;;17.60;87.30;;;20.21;52.82;98311.41;4925455;29;20059;-45
2022/10/17 08:09:11;;;;;;;5.18;3.00;;;17.70;86.70;;;20.26;52.61;98317.03;4926261;29;20058;-48
2022/10/17 08:11:39;;;;;;;7.15;3.17;;;17.80;86.50;;;20.32;52.60;98311.84;4925737;29;20048;-48
2022/10/17 08:14:07;;;;;;;6.45;2.80;;;17.80;86.50;;;20.36;52.66;98313.09;4925941;29;20059;-47
2022/10/17 08:16:35;;;;;;;4.80;2.70;;;17.90;86.50;;;20.40;52.88;98311.63;4925448;29;20250;-43
2022/10/17 08:19:03;;;;;;;5.97;2.80;;;17.90;86.60;;;20.45;52.46;98314.53;4924766;29;20048;-45
2022/10/17 08:21:31;;;;;;;3.00;2.30;;;18.00;86.60;;;20.51;52.48;98316.44;4926022;29;20050;-46
2022/10/17 08:24:01;;;;;;;5.25;2.97;;;18.00;86.10;;;20.56;52.32;98322.03;4925565;29;20100;-48
2022/10/17 08:26:29;;;;;;;5.95;2.67;;;18.10;85.90;;;20.60;52.36;98317.88;4925526;29;20266;-48
2022/10/17 08:28:57;;;;;;;4.32;2.53;;;18.20;85.60;;;20.67;52.31;98323.31;4925418;29;20052;-50
2022/10/17 08:31:26;;;;;;;6.07;2.40;;;18.20;85.70;;;20.72;52.48;98330.78;4924926;29;20063;-48
2022/10/17 08:33:56;;;;;;;3.63;2.22;;;18.30;85.80;;;20.79;52.16;98335.16;4925329;29;20052;-44
2022/10/17 08:36:24;;;;;;;3.03;2.05;;;18.30;85.80;;;20.84;52.46;98345.34;4925505;29;20361;-43
2022/10/17 08:38:52;;;;;;;4.63;2.85;;;18.30;86.10;;;20.89;52.06;98342.00;4925606;29;20052;-47
2022/10/17 08:41:44;;;;;;;6.05;2.65;;;18.30;86.10;;;20.94;52.27;98336.81;4925861;29;20055;-51
2022/10/17 08:44:47;;;;;;;5.45;2.33;;;18.40;85.90;;;20.99;52.36;98337.81;4925485;29;20048;-48
2022/10/17 08:47:28;;;;;;;4.47;2.55;;;18.40;86.00;;;21.03;51.79;98335.50;4924277;29;20234;-48
2022/10/17 08:50:00;;;;;;;4.75;2.10;;;18.50;86.00;;;21.04;52.05;98342.59;4924248;29;20058;-47
2022/10/17 08:52:54;;;;;;;2.70;2.07;;;18.50;85.60;;;21.09;51.82;98333.84;4925791;29;20078;-46
2022/10/17 08:55:36;;;;;;;12.25;2.67;;;18.60;85.40;;;21.17;52.24;98337.16;4917335;29;20068;-46
2022/10/17 08:58:32;;;;;;;7.93;2.97;;;18.60;86.00;;;21.21;51.90;98343.81;4925330;29;20048;-45
2022/10/17 09:01:28;;;;;;;4.97;3.13;;;18.70;85.70;;;21.27;52.25;98336.72;4925181;29;20103;-44
2022/10/17 09:04:29;;;;;;;5.97;2.55;;;18.70;86.00;;;21.33;52.24;98338.56;4924849;29;20048;-46
2022/10/17 09:07:35;;;;;;;3.60;2.90;;;18.80;86.40;;;21.38;52.57;98333.34;4925429;29;20056;-47
2022/10/17 09:10:16;;;;;;;3.65;2.42;;;18.80;86.60;;;21.42;52.58;98331.03;4930794;29;20097;-45
2022/10/17 09:13:08;;;;;;;5.43;3.08;;;18.90;86.80;;;21.43;52.62;98327.28;4947398;29;20043;-47
2022/10/17 09:16:26;;;;;;;2.78;2.50;;;18.90;87.00;;;21.48;52.47;98332.06;4946761;29;20055;-46
2022/10/17 09:19:07;;;;;;;5.18;2.63;;;19.00;86.90;;;21.55;52.76;98332.88;4948096;29;20050;-44
2022/10/17 09:21:51;;;;;;;4.03;2.38;;;19.00;86.80;;;21.56;52.72;98334.56;4919442;29;20075;-50
2022/10/17 09:24:32;;;;;;;4.00;2.60;;;19.10;86.70;;;21.64;52.26;98337.03;4938111;29;20330;-45
2022/10/17 09:27:01;;;;;;;4.85;2.45;;;19.10;86.30;;;21.68;52.42;98335.53;4922712;29;20269;-45
2022/10/17 09:29:29;;;;;;;4.25;2.53;;;19.10;86.20;;;21.70;51.96;98341.56;4928393;29;20059;-45
2022/10/17 09:32:19;;;;;;;4.57;2.50;;;19.20;85.90;;;21.76;52.04;98338.00;4929086;29;20048;-48
2022/10/17 09:34:47;;;;;;;6.88;2.38;;;19.30;85.10;;;21.82;52.05;98333.59;4928964;29;20067;-49
2022/10/17 09:37:17;;;;;;;4.95;2.40;;;19.30;85.60;;;21.87;51.76;98331.06;4928753;29;20050;-45
2022/10/17 09:39:45;;;;;;;4.13;2.70;;;19.40;85.20;;;21.94;51.49;98329.13;4928565;29;20220;-45
2022/10/17 09:42:20;;;;;;;4.78;2.58;;;19.40;84.80;;;22.00;51.60;98327.44;4929222;29;20052;-48
2022/10/17 09:45:15;;;;;;;2.88;2.33;;;19.50;84.30;;;22.07;51.50;98330.13;4927789;29;20269;-50
2022/10/17 09:47:54;;;;;;;4.07;2.15;;;19.60;83.30;;;22.15;51.40;98337.97;4925721;29;20054;-46
2022/10/17 09:50:30;;;;;;;3.47;2.10;;;19.70;83.20;;;22.22;51.39;98330.63;4927955;29;20055;-51
2022/10/17 09:53:34;;;;;;;3.25;2.50;;;19.70;83.10;;;22.26;51.13;98331.88;4927719;29;20052;-45
2022/10/17 09:56:10;;;;;;;6.40;2.50;;;19.80;82.40;;;22.36;50.99;98324.09;4927758;29;20048;-46
2022/10/17 09:58:47;;;;;;;6.85;2.60;;;19.80;82.50;;;22.42;50.53;98331.34;4927252;29;20338;-45
2022/10/17 10:01:29;;;;;;;4.20;2.60;;;20.00;81.80;;;22.50;50.70;98329.41;4928395;29;20063;-47
2022/10/17 10:04:11;;;;;;;4.53;2.80;;;20.10;82.30;;;22.54;50.65;98330.63;4927391;29;20059;-47
2022/10/17 10:06:59;;;;;;;5.22;2.40;;;20.20;80.80;;;22.59;50.57;98323.47;4927927;29;20047;-48
2022/10/17 10:09:32;;;;;;;4.28;2.42;;;20.20;81.40;;;22.69;50.43;98331.13;4928782;29;20056;-46
2022/10/17 10:12:21;;;;;;;5.18;2.40;;;20.30;80.90;;;22.77;50.59;98330.81;4927126;29;20125;-48
2022/10/17 10:14:50;;;;;;;3.60;2.70;;;20.40;79.80;;;22.86;50.19;98338.69;4928491;29;20077;-46
2022/10/17 10:17:43;;;;;;;6.57;3.43;;;20.40;80.10;;;22.92;50.18;98335.09;4927856;29;20052;-47
2022/10/17 10:21:09;;;;;;;6.20;3.03;;;20.50;78.90;;;22.99;50.33;98343.97;4928442;29;20071;-46
2022/10/17 10:23:43;;;;;;;5.68;3.47;;;20.60;79.10;;;23.04;49.73;98343.34;4869708;29;20263;-46
2022/10/17 10:26:24;;;;;;;3.97;2.10;;;20.60;79.80;;;23.05;49.71;98340.41;4869877;29;20057;-45
2022/10/17 10:28:57;;;;;;;4.50;2.22;;;20.60;78.10;;;23.08;49.37;98339.13;4914180;29;20067;-47
2022/10/17 10:31:36;;;;;;;3.58;2.22;;;20.60;78.10;;;23.15;48.94;98337.19;4927088;29;20054;-44
2022/10/17 10:34:19;;;;;;;3.53;2.05;;;20.70;77.60;;;23.16;48.43;98341.53;4927756;29;20063;-44
2022/10/17 10:36:58;;;;;;;3.00;2.00;;;20.70;74.50;;;23.22;48.43;98340.63;4927976;29;20058;-47
2022/10/17 10:39:53;;;;;;;6.10;2.35;;;20.70;75.30;;;23.22;48.58;98343.34;4927730;29;20052;-47
2022/10/17 10:42:35;;;;;;;3.15;2.20;;;20.70;75.50;;;23.28;48.37;98344.34;4927995;29;20048;-46
2022/10/17 10:45:14;;;;;;;3.47;2.00;;;20.80;75.90;;;23.32;48.28;98338.25;4926608;29;20052;-48
2022/10/17 10:48:15;;;;;;;2.63;1.83;;;20.90;74.30;;;23.44;48.15;98343.75;4927341;29;20048;-49
2022/10/17 10:50:56;;;;;;;4.03;2.50;;;20.90;74.80;;;23.45;47.71;98345.38;4926508;29;20052;-45
2022/10/17 10:53:32;;;;;;;3.42;2.70;;;21.00;74.40;;;23.51;47.50;98343.66;4926779;29;20257;-46
2022/10/17 10:56:21;;;;;;;3.38;2.42;;;21.00;74.20;;;23.57;47.58;98343.59;4927222;29;20257;-47
2022/10/17 10:59:12;;;;;;;4.82;2.38;;;21.10;74.00;;;23.63;47.86;98349.16;4925241;29;20058;-45